createdAt,value
2023-11-11T00:00:20.476Z,1.30
2023-11-11T00:02:49.033Z,1.30
2023-11-11T00:05:20.550Z,1.30
2023-11-11T00:07:52.094Z,1.20
2023-11-11T00:10:20.913Z,1.10
2023-11-11T00:12:50.872Z,1.00
2023-11-11T00:15:22.471Z,0.90
2023-11-11T00:17:51.012Z,1.00
2023-11-11T00:20:19.805Z,1.10
2023-11-11T00:22:53.380Z,1.10
2023-11-11T00:25:24.176Z,1.10
2023-11-11T00:28:03.485Z,1.10
2023-11-11T00:30:32.474Z,1.10
2023-11-11T00:33:00.932Z,1.10
2023-11-11T00:35:29.345Z,1.10
2023-11-11T00:38:01.830Z,1.10
2023-11-11T00:40:30.977Z,1.20
2023-11-11T00:43:00.842Z,1.40
2023-11-11T00:45:29.695Z,1.40
2023-11-11T00:47:58.378Z,1.40
2023-11-11T00:50:36.507Z,1.30
2023-11-11T00:53:07.464Z,1.30
2023-11-11T00:55:36.350Z,1.30
2023-11-11T00:58:06.312Z,1.30
2023-11-11T01:00:36.248Z,1.30
2023-11-11T01:03:08.059Z,1.30
2023-11-11T01:05:39.353Z,1.40
2023-11-11T01:08:07.723Z,1.50
2023-11-11T01:10:38.993Z,1.60
2023-11-11T01:13:10.505Z,1.80
2023-11-11T01:15:39.066Z,1.90
2023-11-11T01:18:07.877Z,2.00
2023-11-11T01:20:37.013Z,2.00
2023-11-11T01:23:05.850Z,2.10
2023-11-11T01:25:34.768Z,2.20
2023-11-11T01:28:03.228Z,2.20
2023-11-11T01:30:33.270Z,2.30
2023-11-11T01:33:03.684Z,2.30
2023-11-11T01:35:32.086Z,2.40
2023-11-11T01:38:01.035Z,2.50
2023-11-11T01:40:29.385Z,2.60
2023-11-11T01:43:00.212Z,2.60
2023-11-11T01:45:30.400Z,2.70
2023-11-11T01:48:00.563Z,2.70
2023-11-11T01:50:28.937Z,2.80
2023-11-11T01:52:57.432Z,2.80
2023-11-11T01:55:26.591Z,2.80
2023-11-11T01:57:55.173Z,2.90
2023-11-11T02:00:24.504Z,2.90
2023-11-11T02:02:52.923Z,2.90
2023-11-11T02:05:23.083Z,2.90
2023-11-11T02:07:51.378Z,3.00
2023-11-11T02:10:21.857Z,3.00
2023-11-11T02:12:50.536Z,3.10
2023-11-11T02:15:24.194Z,3.10
2023-11-11T02:17:55.217Z,3.20
2023-11-11T02:20:25.355Z,3.20
2023-11-11T02:22:53.718Z,3.20
2023-11-11T02:25:23.776Z,3.30
2023-11-11T02:27:52.068Z,3.40
2023-11-11T02:30:20.418Z,3.40
2023-11-11T02:32:50.011Z,3.30
2023-11-11T02:35:18.791Z,3.20
2023-11-11T02:37:47.087Z,3.20
2023-11-11T02:40:16.734Z,3.10
2023-11-11T02:42:46.563Z,3.10
2023-11-11T02:45:15.145Z,3.10
2023-11-11T02:47:43.486Z,3.20
2023-11-11T02:50:12.233Z,3.20
2023-11-11T02:52:41.056Z,3.20
2023-11-11T02:55:11.311Z,3.30
2023-11-11T02:57:39.664Z,3.30
2023-11-11T03:00:12.296Z,3.20
2023-11-11T03:02:41.467Z,3.10
2023-11-11T03:05:11.626Z,2.90
2023-11-11T03:07:39.982Z,2.80
2023-11-11T03:10:11.329Z,2.60
2023-11-11T03:12:40.320Z,2.50
2023-11-11T03:15:49.989Z,2.60
2023-11-11T03:18:18.500Z,2.60
2023-11-11T03:20:46.914Z,2.50
2023-11-11T03:23:15.260Z,2.40
2023-11-11T03:25:43.612Z,2.30
2023-11-11T03:28:11.991Z,2.10
2023-11-11T03:30:42.209Z,2.00
2023-11-11T03:33:10.605Z,1.90
2023-11-11T03:35:39.041Z,1.70
2023-11-11T03:38:10.678Z,1.60
2023-11-11T03:40:39.579Z,1.50
2023-11-11T03:43:07.878Z,1.50
2023-11-11T03:45:36.418Z,1.40
2023-11-11T03:48:08.863Z,1.30
2023-11-11T03:50:37.235Z,1.40
2023-11-11T03:53:05.649Z,1.40
2023-11-11T03:55:34.377Z,1.30
2023-11-11T03:58:05.765Z,1.20
2023-11-11T04:00:34.318Z,1.10
2023-11-11T04:03:02.987Z,1.00
2023-11-11T04:05:33.118Z,0.80
2023-11-11T04:08:04.458Z,0.70
2023-11-11T04:10:33.010Z,0.70
2023-11-11T04:13:02.117Z,0.70
2023-11-11T04:15:30.768Z,0.70
2023-11-11T04:17:59.745Z,0.80
2023-11-11T04:20:28.335Z,0.80
2023-11-11T04:23:00.958Z,0.90
2023-11-11T04:25:29.325Z,1.00
2023-11-11T04:28:00.635Z,1.10
2023-11-11T04:30:29.071Z,1.20
2023-11-11T04:33:00.573Z,1.40
2023-11-11T04:35:31.736Z,1.60
2023-11-11T04:38:02.722Z,1.70
2023-11-11T04:40:33.819Z,1.80
2023-11-11T04:43:02.648Z,1.90
2023-11-11T04:45:31.887Z,1.90
2023-11-11T04:48:00.634Z,2.00
2023-11-11T04:50:28.974Z,2.00
2023-11-11T04:52:57.644Z,2.00
2023-11-11T04:55:59.979Z,2.20
2023-11-11T04:58:30.989Z,2.20
2023-11-11T05:00:59.470Z,2.20
2023-11-11T05:03:30.022Z,2.20
2023-11-11T05:05:58.836Z,2.20
2023-11-11T05:08:32.247Z,2.20
2023-11-11T05:11:02.661Z,2.20
2023-11-11T05:13:36.860Z,2.20
2023-11-11T05:16:15.373Z,2.30
2023-11-11T05:18:46.536Z,2.30
2023-11-11T05:21:17.684Z,2.30
2023-11-11T05:23:50.732Z,2.30
2023-11-11T05:26:20.632Z,2.30
2023-11-11T05:28:49.084Z,2.30
2023-11-11T05:31:17.704Z,2.20
2023-11-11T05:33:46.211Z,2.20
2023-11-11T05:36:15.263Z,2.10
2023-11-11T05:38:46.624Z,2.10
2023-11-11T05:41:15.003Z,2.00
2023-11-11T05:43:45.475Z,2.10
2023-11-11T05:46:15.534Z,2.00
2023-11-11T05:48:46.069Z,2.00
2023-11-11T05:51:19.984Z,2.10
2023-11-11T05:53:51.776Z,2.10
2023-11-11T05:56:20.798Z,2.10
2023-11-11T05:58:56.539Z,2.10
2023-11-11T06:01:35.881Z,2.20
2023-11-11T06:04:04.644Z,2.20
2023-11-11T06:06:35.109Z,2.30
2023-11-11T06:09:06.017Z,2.30
2023-11-11T06:11:34.557Z,2.30
2023-11-11T06:14:07.135Z,2.30
2023-11-11T06:16:36.261Z,2.30
2023-11-11T06:19:04.930Z,2.30
2023-11-11T06:21:33.315Z,2.40
2023-11-11T06:24:01.731Z,2.40
2023-11-11T06:26:31.817Z,2.50
2023-11-11T06:29:03.492Z,2.50
2023-11-11T06:31:33.939Z,2.60
2023-11-11T06:34:02.863Z,2.60
2023-11-11T06:36:31.548Z,2.70
2023-11-11T06:39:38.418Z,2.70
2023-11-11T06:42:07.092Z,2.80
2023-11-11T06:44:35.770Z,2.90
2023-11-11T06:47:05.956Z,3.00
2023-11-11T06:49:34.369Z,3.10
2023-11-11T06:52:02.854Z,3.20
2023-11-11T06:54:34.303Z,3.30
2023-11-11T06:57:02.798Z,3.50
2023-11-11T06:59:31.270Z,3.60
2023-11-11T07:02:01.975Z,3.60
2023-11-11T07:04:31.830Z,3.70
2023-11-11T07:07:00.421Z,3.70
2023-11-11T07:09:28.760Z,3.70
2023-11-11T07:11:58.000Z,3.80
2023-11-11T07:14:26.766Z,3.90
2023-11-11T07:16:55.255Z,3.90
2023-11-11T07:19:25.036Z,4.00
2023-11-11T07:24:29.423Z,4.10
2023-11-11T07:26:58.118Z,4.20
2023-11-11T07:29:27.098Z,4.30
2023-11-11T07:31:56.055Z,4.40
2023-11-11T07:34:24.493Z,4.50
2023-11-11T07:36:54.533Z,4.50
2023-11-11T07:39:23.076Z,4.70
2023-11-11T07:41:52.006Z,4.70
2023-11-11T07:44:20.262Z,4.80
2023-11-11T07:46:48.693Z,4.90
2023-11-11T07:49:16.981Z,5.00
2023-11-11T07:51:48.050Z,5.00
2023-11-11T07:54:17.857Z,5.10
2023-11-11T07:56:46.224Z,5.10
2023-11-11T07:59:14.913Z,5.10
2023-11-11T08:01:44.007Z,5.20
2023-11-11T08:04:32.706Z,5.20
2023-11-11T08:07:01.408Z,5.20
2023-11-11T08:09:32.727Z,5.20
2023-11-11T08:12:01.165Z,5.20
2023-11-11T08:14:29.765Z,5.30
2023-11-11T08:16:59.231Z,5.40
2023-11-11T08:19:30.890Z,5.50
2023-11-11T08:21:59.362Z,5.60
2023-11-11T08:24:27.782Z,5.60
2023-11-11T08:27:00.324Z,5.60
2023-11-11T08:29:28.655Z,5.60
2023-11-11T08:31:57.132Z,5.60
2023-11-11T08:34:31.071Z,5.50
2023-11-11T08:36:59.575Z,5.50
2023-11-11T08:39:28.077Z,5.50
2023-11-11T08:41:56.612Z,5.50
2023-11-11T08:44:26.465Z,5.60
2023-11-11T08:46:55.485Z,5.60
2023-11-11T08:49:24.920Z,5.70
2023-11-11T08:51:53.520Z,5.70
2023-11-11T08:54:21.945Z,5.60
2023-11-11T08:56:50.240Z,5.50
2023-11-11T08:59:18.757Z,5.60
2023-11-11T09:01:49.118Z,5.60
2023-11-11T09:04:17.583Z,5.70
2023-11-11T09:06:46.304Z,5.70
2023-11-11T09:09:20.110Z,5.70
2023-11-11T09:11:50.466Z,5.80
2023-11-11T09:14:19.874Z,5.90
2023-11-11T09:16:49.809Z,6.10
2023-11-11T09:19:18.185Z,6.30
2023-11-11T09:21:46.502Z,6.60
2023-11-11T09:24:15.085Z,6.80
2023-11-11T09:29:16.770Z,6.90
2023-11-11T09:31:45.278Z,6.90
2023-11-11T09:34:15.464Z,6.80
2023-11-11T09:36:45.674Z,6.70
2023-11-11T09:39:15.219Z,6.60
2023-11-11T09:41:44.723Z,6.60
2023-11-11T09:46:54.298Z,6.80
2023-11-11T09:49:25.263Z,6.90
2023-11-11T09:51:56.072Z,7.00
2023-11-11T09:54:25.148Z,7.10
2023-11-11T09:59:26.930Z,7.40
2023-11-11T10:01:55.206Z,7.60
2023-11-11T10:04:26.016Z,7.70
2023-11-11T10:06:54.620Z,7.90
2023-11-11T10:09:24.429Z,8.10
2023-11-11T10:11:53.614Z,8.30
2023-11-11T10:14:23.711Z,8.40
2023-11-11T10:16:56.009Z,8.40
2023-11-11T10:19:28.574Z,8.40
2023-11-11T10:21:58.475Z,8.60
2023-11-11T10:24:27.454Z,8.60
2023-11-11T10:26:55.895Z,8.50
2023-11-11T10:29:24.236Z,8.50
2023-11-11T10:31:53.346Z,8.50
2023-11-11T10:34:22.124Z,8.50
2023-11-11T10:36:51.876Z,8.40
2023-11-11T10:39:21.739Z,8.40
2023-11-11T10:41:50.053Z,8.40
2023-11-11T10:44:19.065Z,8.50
2023-11-11T10:46:50.927Z,8.50
2023-11-11T10:49:20.048Z,8.50
2023-11-11T10:51:52.229Z,8.40
2023-11-11T10:54:26.822Z,8.40
2023-11-11T10:56:55.826Z,8.20
2023-11-11T10:59:26.163Z,8.10
2023-11-11T11:01:55.735Z,7.90
2023-11-11T11:04:29.829Z,7.80
2023-11-11T11:07:04.807Z,7.80
2023-11-11T11:09:44.029Z,7.70
2023-11-11T11:12:19.271Z,7.60
2023-11-11T11:14:51.299Z,7.70
2023-11-11T11:17:19.835Z,7.80
2023-11-11T11:19:56.259Z,7.80
2023-11-11T11:22:36.019Z,7.80
2023-11-11T11:25:38.316Z,7.90
2023-11-11T11:28:28.640Z,8.00
2023-11-11T11:31:00.210Z,7.90
2023-11-11T11:33:30.038Z,7.80
2023-11-11T11:36:05.423Z,7.60
2023-11-11T11:38:36.107Z,7.60
2023-11-11T11:41:08.317Z,7.60
2023-11-11T11:43:40.185Z,7.60
2023-11-11T11:46:09.282Z,7.60
2023-11-11T11:48:39.728Z,7.60
2023-11-11T11:51:15.911Z,7.60
2023-11-11T11:53:45.062Z,7.50
2023-11-11T11:56:28.809Z,7.40
2023-11-11T11:59:00.730Z,7.40
2023-11-11T12:01:30.722Z,7.50
2023-11-11T12:04:00.329Z,7.60
2023-11-11T12:06:29.378Z,7.60
2023-11-11T12:08:58.904Z,7.50
2023-11-11T12:11:28.175Z,7.50
2023-11-11T12:13:58.550Z,7.50
2023-11-11T12:16:40.549Z,7.50
2023-11-11T12:19:10.448Z,7.50
2023-11-11T12:21:40.785Z,7.60
2023-11-11T12:24:09.999Z,7.60
2023-11-11T12:26:39.855Z,7.70
2023-11-11T12:29:10.278Z,7.60
2023-11-11T12:31:47.018Z,7.60
2023-11-11T12:34:17.363Z,7.70
2023-11-11T12:36:46.872Z,7.70
2023-11-11T12:39:17.009Z,7.70
2023-11-11T12:41:50.155Z,7.70
2023-11-11T12:44:20.585Z,7.70
2023-11-11T12:46:50.584Z,7.60
2023-11-11T12:49:23.072Z,7.50
2023-11-11T12:51:52.068Z,7.40
2023-11-11T12:54:31.149Z,7.30
2023-11-11T12:56:59.510Z,7.20
2023-11-11T12:59:29.375Z,7.20
2023-11-11T13:02:02.464Z,7.10
2023-11-11T13:04:31.810Z,7.10
2023-11-11T13:07:02.312Z,7.10
2023-11-11T13:09:44.762Z,7.10
2023-11-11T13:12:16.152Z,7.00
2023-11-11T13:14:47.137Z,7.00
2023-11-11T13:17:15.860Z,6.90
2023-11-11T13:19:44.528Z,6.90
2023-11-11T13:22:13.522Z,6.90
2023-11-11T13:24:43.520Z,6.80
2023-11-11T13:27:11.867Z,6.80
2023-11-11T13:29:40.274Z,6.70
2023-11-11T13:32:13.111Z,6.70
2023-11-11T13:34:45.737Z,6.70
2023-11-11T13:37:23.667Z,6.60
2023-11-11T13:40:01.950Z,6.50
2023-11-11T13:42:31.627Z,6.50
2023-11-11T13:45:00.254Z,6.50
2023-11-11T13:47:30.290Z,6.40
2023-11-11T13:50:00.136Z,6.40
2023-11-11T13:52:29.167Z,6.30
2023-11-11T13:54:58.410Z,6.20
2023-11-11T13:57:26.745Z,6.10
2023-11-11T13:59:55.244Z,6.00
2023-11-11T14:02:23.618Z,5.90
2023-11-11T14:04:53.434Z,5.80
2023-11-11T14:07:21.762Z,5.80
2023-11-11T14:09:50.077Z,5.80
2023-11-11T14:12:21.623Z,5.70
2023-11-11T14:14:53.084Z,5.60
2023-11-11T14:17:25.131Z,5.60
2023-11-11T14:19:59.110Z,5.50
2023-11-11T14:22:28.970Z,5.50
2023-11-11T14:24:57.345Z,5.50
2023-11-11T14:27:28.704Z,5.40
2023-11-11T14:29:57.790Z,5.40
2023-11-11T14:32:26.194Z,5.30
2023-11-11T14:34:58.197Z,5.30
2023-11-11T14:37:27.076Z,5.20
2023-11-11T14:39:56.904Z,5.20
2023-11-11T14:42:25.451Z,5.10
2023-11-11T14:44:56.504Z,5.10
2023-11-11T14:47:34.293Z,5.00
2023-11-11T14:50:05.987Z,5.00
2023-11-11T14:52:34.420Z,4.90
2023-11-11T14:55:02.751Z,4.90
2023-11-11T14:57:31.095Z,4.90
2023-11-11T14:59:59.565Z,4.80
2023-11-11T15:02:32.873Z,4.80
2023-11-11T15:05:01.623Z,4.70
2023-11-11T15:07:31.554Z,4.70
2023-11-11T15:10:00.979Z,4.60
2023-11-11T15:12:39.942Z,4.60
2023-11-11T15:15:09.239Z,4.50
2023-11-11T15:17:39.250Z,4.50
2023-11-11T15:20:15.824Z,4.40
2023-11-11T15:22:52.628Z,4.40
2023-11-11T15:25:31.887Z,4.30
2023-11-11T15:28:10.350Z,4.20
2023-11-11T15:30:53.307Z,4.20
2023-11-11T15:33:30.074Z,4.10
2023-11-11T15:35:58.566Z,4.10
2023-11-11T15:38:45.798Z,4.10
2023-11-11T15:41:14.305Z,4.00
2023-11-11T15:43:42.981Z,4.00
2023-11-11T15:46:11.434Z,4.00
2023-11-11T15:48:40.026Z,4.00
2023-11-11T15:51:18.147Z,4.10
2023-11-11T15:53:53.719Z,4.00
2023-11-11T15:56:27.064Z,4.00
2023-11-11T15:58:55.402Z,3.90
2023-11-11T16:01:24.795Z,3.90
2023-11-11T16:03:53.265Z,3.90
2023-11-11T16:06:22.028Z,3.90
2023-11-11T16:08:51.444Z,3.90
2023-11-11T16:11:25.430Z,3.90
2023-11-11T16:13:53.849Z,3.90
2023-11-11T16:16:22.313Z,3.90
2023-11-11T16:18:50.705Z,3.90
2023-11-11T16:21:21.290Z,3.90
2023-11-11T16:23:50.254Z,3.90
2023-11-11T16:26:19.409Z,3.90
2023-11-11T16:28:49.954Z,3.90
2023-11-11T16:31:22.038Z,3.90
2023-11-11T16:33:50.395Z,3.90
2023-11-11T16:36:18.744Z,3.90
2023-11-11T16:38:47.170Z,3.90
2023-11-11T16:41:15.593Z,3.90
2023-11-11T16:43:44.076Z,3.90
2023-11-11T16:46:14.835Z,3.90
2023-11-11T16:48:43.446Z,4.00
2023-11-11T16:51:13.561Z,4.00
2023-11-11T16:53:41.882Z,4.10
2023-11-11T16:56:10.250Z,4.00
2023-11-11T16:58:38.829Z,4.10
2023-11-11T17:01:08.688Z,4.10
2023-11-11T17:03:38.931Z,4.10
2023-11-11T17:06:10.288Z,4.10
2023-11-11T17:08:39.305Z,4.10
2023-11-11T17:11:10.226Z,4.10
2023-11-11T17:13:40.456Z,4.20
2023-11-11T17:16:10.604Z,4.20
2023-11-11T17:18:40.972Z,4.20
2023-11-11T17:21:10.310Z,4.20
2023-11-11T17:23:39.734Z,4.30
2023-11-11T17:26:08.471Z,4.30
2023-11-11T17:28:36.948Z,4.30
2023-11-11T17:31:05.738Z,4.30
2023-11-11T17:33:38.729Z,4.30
2023-11-11T17:36:13.022Z,4.30
2023-11-11T17:38:41.964Z,4.30
2023-11-11T17:41:13.670Z,4.30
2023-11-11T17:43:43.050Z,4.30
2023-11-11T17:46:18.915Z,4.30
2023-11-11T17:48:47.403Z,4.30
2023-11-11T17:51:21.275Z,4.30
2023-11-11T17:53:50.385Z,4.30
2023-11-11T17:56:22.397Z,4.30
2023-11-11T17:58:51.164Z,4.30
2023-11-11T18:01:19.878Z,4.30
2023-11-11T18:03:48.346Z,4.30
2023-11-11T18:06:16.773Z,4.40
2023-11-11T18:08:47.400Z,4.30
2023-11-11T18:11:16.063Z,4.30
2023-11-11T18:13:44.330Z,4.30
2023-11-11T18:16:21.898Z,4.30
2023-11-11T18:18:50.250Z,4.30
2023-11-11T18:21:18.950Z,4.30
2023-11-11T18:23:49.127Z,4.20
2023-11-11T18:26:17.554Z,4.30
2023-11-11T18:28:47.160Z,4.30
2023-11-11T18:31:16.840Z,4.30
2023-11-11T18:33:45.454Z,4.30
2023-11-11T18:36:14.283Z,4.30
2023-11-11T18:38:42.818Z,4.30
2023-11-11T18:41:12.877Z,4.30
2023-11-11T18:43:44.397Z,4.30
2023-11-11T18:46:16.924Z,4.20
2023-11-11T18:48:45.325Z,4.30
2023-11-11T18:51:13.813Z,4.30
2023-11-11T18:53:43.157Z,4.30
2023-11-11T18:56:16.293Z,4.30
2023-11-11T18:58:47.211Z,4.30
2023-11-11T19:01:15.677Z,4.30
2023-11-11T19:03:49.428Z,4.30
2023-11-11T19:06:17.804Z,4.30
2023-11-11T19:08:49.370Z,4.30
2023-11-11T19:11:20.294Z,4.30
2023-11-11T19:13:48.742Z,4.30
2023-11-11T19:16:17.459Z,4.30
2023-11-11T19:18:48.930Z,4.30
2023-11-11T19:21:17.366Z,4.30
2023-11-11T19:23:45.654Z,4.30
2023-11-11T19:26:20.128Z,4.30
2023-11-11T19:28:49.925Z,4.30
2023-11-11T19:31:18.492Z,4.30
2023-11-11T19:33:53.073Z,4.30
2023-11-11T19:36:21.647Z,4.20
2023-11-11T19:38:50.065Z,4.20
2023-11-11T19:41:20.032Z,4.20
2023-11-11T19:43:50.168Z,4.20
2023-11-11T19:46:20.920Z,4.20
2023-11-11T19:48:49.670Z,4.30
2023-11-11T19:51:24.529Z,4.20
2023-11-11T19:53:53.811Z,4.20
2023-11-11T19:56:22.655Z,4.20
2023-11-11T19:58:52.805Z,4.20
2023-11-11T20:01:21.373Z,4.20
2023-11-11T20:03:49.845Z,4.20
2023-11-11T20:06:18.370Z,4.20
2023-11-11T20:08:47.037Z,4.20
2023-11-11T20:11:29.747Z,4.20
2023-11-11T20:13:59.697Z,4.10
2023-11-11T20:16:28.236Z,4.10
2023-11-11T20:18:56.712Z,4.10
2023-11-11T20:21:25.232Z,4.10
2023-11-11T20:23:53.593Z,4.10
2023-11-11T20:26:22.402Z,4.10
2023-11-11T20:28:51.016Z,4.00
2023-11-11T20:31:24.045Z,4.00
2023-11-11T20:33:52.594Z,4.00
2023-11-11T20:36:21.809Z,4.10
2023-11-11T20:38:50.873Z,4.10
2023-11-11T20:41:19.280Z,4.00
2023-11-11T20:43:50.970Z,4.00
2023-11-11T20:46:29.321Z,4.00
2023-11-11T20:49:03.654Z,4.00
2023-11-11T20:51:32.207Z,4.00
2023-11-11T20:54:00.954Z,3.90
2023-11-11T20:56:29.313Z,3.80
2023-11-11T20:58:57.776Z,3.80
2023-11-11T21:01:28.077Z,3.70
2023-11-11T21:03:56.792Z,3.80
2023-11-11T21:06:26.770Z,3.80
2023-11-11T21:08:56.423Z,3.80
2023-11-11T21:11:27.123Z,3.80
2023-11-11T21:13:57.874Z,3.80
2023-11-11T21:16:27.836Z,3.80
2023-11-11T21:18:57.765Z,3.90
2023-11-11T21:21:28.379Z,3.90
2023-11-11T21:23:56.689Z,3.90
2023-11-11T21:26:25.206Z,3.90
2023-11-11T21:28:54.114Z,3.80
2023-11-11T21:31:23.506Z,3.80
2023-11-11T21:33:53.260Z,3.80
2023-11-11T21:36:23.273Z,3.80
2023-11-11T21:38:52.215Z,3.80
2023-11-11T21:41:20.747Z,3.80
2023-11-11T21:43:50.958Z,3.80
2023-11-11T21:46:21.011Z,3.90
2023-11-11T21:48:58.395Z,3.90
2023-11-11T21:51:30.522Z,3.90
2023-11-11T21:54:01.203Z,3.90
2023-11-11T21:56:29.846Z,3.80
2023-11-11T21:58:59.699Z,3.80
2023-11-11T22:01:28.334Z,3.80
2023-11-11T22:03:57.063Z,3.90
2023-11-11T22:06:25.459Z,3.90
2023-11-11T22:08:55.304Z,3.90
2023-11-11T22:11:23.779Z,3.90
2023-11-11T22:13:52.162Z,4.00
2023-11-11T22:16:20.571Z,4.00
2023-11-11T22:18:48.988Z,4.00
2023-11-11T22:21:21.256Z,4.00
2023-11-11T22:23:49.577Z,4.00
2023-11-11T22:26:19.935Z,4.00
2023-11-11T22:28:48.387Z,4.00
2023-11-11T22:31:16.914Z,4.00
2023-11-11T22:33:45.308Z,4.00
2023-11-11T22:36:14.458Z,4.00
2023-11-11T22:38:42.752Z,4.00
2023-11-11T22:41:11.434Z,4.00
2023-11-11T22:43:42.182Z,4.00
2023-11-11T22:46:10.625Z,4.10
2023-11-11T22:48:39.326Z,4.10
2023-11-11T22:51:11.613Z,4.00
2023-11-11T22:53:40.093Z,4.10
2023-11-11T22:56:11.049Z,4.10
2023-11-11T22:58:40.877Z,4.10
2023-11-11T23:01:12.221Z,4.10
2023-11-11T23:03:40.794Z,4.10
2023-11-11T23:06:09.658Z,4.10
2023-11-11T23:08:38.010Z,4.10
2023-11-11T23:11:06.567Z,4.10
2023-11-11T23:13:34.918Z,4.10
2023-11-11T23:16:05.237Z,4.10
2023-11-11T23:18:33.815Z,4.10
2023-11-11T23:21:10.771Z,4.10
2023-11-11T23:23:48.247Z,4.10
2023-11-11T23:26:16.680Z,4.10
2023-11-11T23:28:45.040Z,4.10
2023-11-11T23:31:15.172Z,4.10
2023-11-11T23:33:43.609Z,4.10
2023-11-11T23:36:12.000Z,4.00
2023-11-11T23:38:40.895Z,4.00
2023-11-11T23:41:09.692Z,4.00
2023-11-11T23:43:39.030Z,4.00
2023-11-11T23:46:07.427Z,4.00
2023-11-11T23:48:37.316Z,4.00
2023-11-11T23:51:08.713Z,4.00
2023-11-11T23:53:37.267Z,4.00
2023-11-11T23:56:10.994Z,4.00
2023-11-11T23:58:39.299Z,4.00
